Time;durP1;ratioP1;P1;durP2;ratioP2;P2;SDS_P1;SDS_P2;PMS_P1;PMS_P2;Temp;Humidity;BMP_temperature;BMP_pressure;BME280_temperature;BME280_humidity;BME280_pressure;Samples;Min_cycle;Max_cycle;Signal;HPM_P1;HPM_P2
2021/01/06 00:00:44;;;;;;;9.15;2.22;;;23.20;27.20;;;;;;5108086;28;20085;-60
2021/01/06 00:03:16;;;;;;;5.53;2.20;;;23.10;27.30;;;;;;5090591;28;20075;-60
2021/01/06 00:05:44;;;;;;;5.57;1.88;;;23.00;27.60;;;;;;5111200;28;20082;-59
2021/01/06 00:08:11;;;;;;;8.77;1.98;;;22.90;27.40;;;;;;5110910;28;20158;-58
2021/01/06 00:10:37;;;;;;;10.82;1.95;;;22.80;27.60;;;;;;5107776;28;20083;-60
2021/01/06 00:13:05;;;;;;;63.05;7.07;;;22.70;27.30;;;;;;5110210;27;20169;-60
2021/01/06 00:15:37;;;;;;;30.77;4.13;;;22.60;27.10;;;;;;5109390;28;20095;-56
2021/01/06 00:18:05;;;;;;;28.30;4.75;;;22.50;27.10;;;;;;5108568;28;20156;-57
2021/01/06 00:20:33;;;;;;;17.35;2.85;;;22.50;27.20;;;;;;5107278;28;20539;-59
2021/01/06 00:22:59;;;;;;;19.05;2.45;;;22.40;27.40;;;;;;5107699;28;20551;-60
2021/01/06 00:25:31;;;;;;;102.30;12.13;;;22.30;27.80;;;;;;5106927;28;20080;-60
2021/01/06 00:27:59;;;;;;;129.20;18.42;;;22.20;28.10;;;;;;5109600;28;20078;-60
2021/01/06 00:30:30;;;;;;;65.15;9.25;;;22.10;28.20;;;;;;5106740;28;20071;-59
2021/01/06 00:32:57;;;;;;;99.85;11.80;;;22.00;28.70;;;;;;5108017;28;20474;-59
2021/01/06 00:35:24;;;;;;;29.15;4.70;;;21.90;28.70;;;;;;5107847;28;20485;-60
2021/01/06 00:37:51;;;;;;;33.38;6.55;;;21.70;29.00;;;;;;5106148;28;20067;-58
2021/01/06 00:40:19;;;;;;;39.28;6.60;;;21.60;29.30;;;;;;5108309;28;20157;-59
2021/01/06 00:42:46;;;;;;;40.83;10.25;;;21.50;29.70;;;;;;5108195;28;20078;-59
2021/01/06 00:45:17;;;;;;;81.50;15.18;;;21.30;30.40;;;;;;5108534;28;20109;-57
2021/01/06 00:47:44;;;;;;;60.72;15.90;;;21.10;31.50;;;;;;5109121;28;20162;-60
2021/01/06 00:50:11;;;;;;;99.07;16.88;;;21.00;31.30;;;;;;5090518;28;20481;-59
2021/01/06 00:52:38;;;;;;;157.77;21.67;;;20.80;31.10;;;;;;5109175;28;20435;-60
2021/01/06 00:55:05;;;;;;;84.80;14.23;;;20.60;32.00;;;;;;5108128;28;20102;-59
2021/01/06 00:57:32;;;;;;;78.53;14.13;;;20.40;33.70;;;;;;5106861;28;20094;-60
2021/01/06 00:59:58;;;;;;;64.07;12.95;;;20.30;33.70;;;;;;5085923;28;20572;-59
2021/01/06 01:02:25;;;;;;;49.40;10.82;;;20.10;33.80;;;;;;5110714;28;20086;-56
2021/01/06 01:04:51;;;;;;;34.40;7.88;;;20.00;34.30;;;;;;5089398;28;20405;-61
2021/01/06 01:07:18;;;;;;;26.63;6.75;;;19.80;34.60;;;;;;5088331;28;20087;-56
2021/01/06 01:09:46;;;;;;;23.73;5.80;;;19.60;34.90;;;;;;5110311;28;20071;-57
2021/01/06 01:12:13;;;;;;;24.90;5.65;;;19.50;35.40;;;;;;5108793;28;20104;-58
2021/01/06 01:14:39;;;;;;;26.95;5.55;;;19.30;35.60;;;;;;5106953;28;20095;-59
2021/01/06 01:17:07;;;;;;;28.17;5.57;;;19.20;35.80;;;;;;5105968;28;20075;-59
2021/01/06 01:19:33;;;;;;;26.67;5.78;;;19.00;36.60;;;;;;5092432;28;20076;-60
2021/01/06 01:22:00;;;;;;;;;;;18.90;37.30;;;;;;5108829;28;20596;-57
2021/01/06 01:24:26;;;;;;;27.17;6.03;;;18.70;37.90;;;;;;5086180;28;19979;-57
2021/01/06 01:26:52;;;;;;;;;;;18.60;38.50;;;;;;5110849;28;20079;-57
2021/01/06 01:29:19;;;;;;;30.15;7.30;;;18.40;38.70;;;;;;5109777;28;19967;-59
2021/01/06 01:31:46;;;;;;;26.00;6.30;;;18.40;38.90;;;;;;5108360;28;20170;-59
2021/01/06 01:34:14;;;;;;;25.80;6.18;;;18.20;39.00;;;;;;5088979;28;20585;-57
2021/01/06 01:36:47;;;;;;;38.42;7.32;;;18.10;39.20;;;;;;5064303;28;20679;-57
2021/01/06 01:39:14;;;;;;;32.80;7.50;;;18.10;39.50;;;;;;5085402;28;20156;-59
2021/01/06 01:41:40;;;;;;;31.00;7.28;;;18.00;39.60;;;;;;5065386;28;20077;-58
2021/01/06 01:44:08;;;;;;;37.47;7.25;;;17.90;40.00;;;;;;5081701;28;20080;-59
2021/01/06 01:46:49;;;;;;;47.30;7.47;;;17.70;40.20;;;;;;5080083;28;20084;-59
2021/01/06 01:49:28;;;;;;;43.30;7.75;;;17.60;40.60;;;;;;5065754;28;20080;-61
2021/01/06 01:52:08;;;;;;;39.40;9.45;;;17.50;40.90;;;;;;5064885;28;20532;-61
2021/01/06 01:54:35;;;;;;;54.42;9.30;;;17.40;41.20;;;;;;5082041;28;20556;-57
2021/01/06 01:57:18;;;;;;;41.10;9.00;;;17.30;41.10;;;;;;5087147;28;20163;-58
2021/01/06 01:59:53;;;;;;;51.65;9.80;;;17.20;41.50;;;;;;5087793;28;20192;-60
2021/01/06 02:02:22;;;;;;;42.35;8.77;;;17.20;41.80;;;;;;5063498;28;20072;-57
2021/01/06 02:05:00;;;;;;;45.97;9.40;;;17.10;42.20;;;;;;5061056;28;20081;-60
2021/01/06 02:07:32;;;;;;;47.47;10.07;;;17.00;42.50;;;;;;5086142;28;20068;-58
2021/01/06 02:10:13;;;;;;;55.90;13.68;;;16.90;42.70;;;;;;5085652;28;20110;-59
2021/01/06 02:12:42;;;;;;;46.40;11.48;;;16.80;42.80;;;;;;5089518;28;20104;-60
2021/01/06 02:15:46;;;;;;;33.85;10.48;;;16.70;44.20;;;;;;5068649;28;20096;-60
2021/01/06 02:18:15;;;;;;;43.78;10.32;;;16.70;44.00;;;;;;5081330;28;20138;-59
2021/01/06 02:20:58;;;;;;;48.08;10.30;;;16.60;43.90;;;;;;5082878;28;20073;-59
2021/01/06 02:23:25;;;;;;;46.25;9.75;;;16.50;44.00;;;;;;5087309;28;20457;-61
2021/01/06 02:25:51;;;;;;;;;;;16.40;44.30;;;;;;5087197;28;20108;-59
2021/01/06 02:28:17;;;;;;;47.60;10.13;;;16.30;44.80;;;;;;5086363;28;19956;-61
2021/01/06 02:30:44;;;;;;;;;;;16.30;44.80;;;;;;5067328;28;20069;-59
2021/01/06 02:33:10;;;;;;;50.97;11.75;;;16.20;45.20;;;;;;5082908;28;19992;-60
2021/01/06 02:35:36;;;;;;;;;;;16.10;45.60;;;;;;5086141;28;20107;-59
2021/01/06 02:38:03;;;;;;;50.60;12.57;;;16.10;45.70;;;;;;5086574;28;20408;-58
2021/01/06 02:40:29;;;;;;;;;;;16.10;45.70;;;;;;5086267;28;20076;-57
2021/01/06 02:42:56;;;;;;;62.55;13.27;;;16.00;46.40;;;;;;5083930;28;19960;-60
2021/01/06 02:45:23;;;;;;;57.05;13.95;;;15.90;46.40;;;;;;5083561;28;20081;-60
2021/01/06 02:47:50;;;;;;;;;;;15.90;46.50;;;;;;5086025;28;20092;-59
2021/01/06 02:50:23;;;;;;;56.30;14.23;;;15.80;46.90;;;;;;5090073;28;19957;-61
2021/01/06 02:52:58;;;;;;;52.40;13.25;;;15.70;47.10;;;;;;5085114;28;20085;-61
2021/01/06 02:55:27;;;;;;;56.78;13.88;;;15.70;47.20;;;;;;5085690;28;20094;-58
2021/01/06 02:57:56;;;;;;;66.97;14.02;;;15.70;47.40;;;;;;5087679;28;20082;-58
2021/01/06 03:00:26;;;;;;;44.90;11.88;;;15.60;47.40;;;;;;5082533;28;20521;-61
2021/01/06 03:02:54;;;;;;;50.08;12.75;;;15.60;47.60;;;;;;5082201;28;20107;-58
2021/01/06 03:05:48;;;;;;;51.53;14.07;;;15.50;47.50;;;;;;5068920;28;20103;-61
2021/01/06 03:08:17;;;;;;;48.55;13.73;;;15.40;47.70;;;;;;5087637;28;20087;-57
2021/01/06 03:10:44;;;;;;;58.88;14.48;;;15.40;48.10;;;;;;5091126;28;20144;-58
2021/01/06 03:13:11;;;;;;;61.63;14.20;;;15.30;48.10;;;;;;5074154;28;20076;-64
2021/01/06 03:15:38;;;;;;;56.05;17.77;;;15.30;48.20;;;;;;5086176;28;20124;-57
2021/01/06 03:18:05;;;;;;;73.40;22.67;;;15.30;48.20;;;;;;5066896;28;20107;-59
2021/01/06 03:20:46;;;;;;;92.97;29.33;;;15.30;48.20;;;;;;5091042;28;20108;-58
2021/01/06 03:23:31;;;;;;;86.32;33.80;;;15.20;48.40;;;;;;5086185;28;20435;-60
2021/01/06 03:26:00;;;;;;;90.35;33.28;;;15.20;48.60;;;;;;5084888;28;21061;-64
2021/01/06 03:28:28;;;;;;;96.32;31.95;;;15.20;48.70;;;;;;5083822;28;20103;-60
2021/01/06 03:30:57;;;;;;;81.35;28.52;;;15.10;49.00;;;;;;5079146;28;20073;-59
2021/01/06 03:33:27;;;;;;;90.97;31.40;;;15.00;48.70;;;;;;5086594;28;20103;-60
2021/01/06 03:36:10;;;;;;;98.43;31.17;;;15.00;49.00;;;;;;5088473;28;20096;-60
2021/01/06 03:38:56;;;;;;;81.25;32.42;;;15.00;49.00;;;;;;5088319;28;20084;-58
2021/01/06 03:41:24;;;;;;;108.18;31.08;;;15.10;49.20;;;;;;5087763;28;20136;-57
2021/01/06 03:44:06;;;;;;;99.13;29.92;;;15.00;49.40;;;;;;5070350;28;20073;-58
2021/01/06 03:46:57;;;;;;;85.90;31.33;;;14.90;50.30;;;;;;5086993;28;20079;-59
2021/01/06 03:49:44;;;;;;;101.15;33.42;;;14.90;49.70;;;;;;5088809;28;20075;-60
2021/01/06 03:52:42;;;;;;;100.47;32.03;;;14.90;49.90;;;;;;5089185;28;20095;-59
2021/01/06 03:55:34;;;;;;;76.17;29.53;;;14.80;50.00;;;;;;5089330;28;20135;-63
2021/01/06 03:58:01;;;;;;;82.85;26.73;;;14.80;50.40;;;;;;5090113;28;20341;-57
2021/01/06 04:01:02;;;;;;;76.18;24.13;;;14.80;50.40;;;;;;5089111;28;20429;-60
2021/01/06 04:03:52;;;;;;;63.70;20.60;;;14.70;50.10;;;;;;5085777;28;20077;-58
2021/01/06 04:06:20;;;;;;;60.92;20.27;;;14.60;50.30;;;;;;5084938;28;20104;-60
2021/01/06 04:08:51;;;;;;;73.60;20.60;;;14.60;50.50;;;;;;5089665;28;20461;-61
2021/01/06 04:11:23;;;;;;;58.85;20.33;;;14.60;50.60;;;;;;5089379;28;20064;-58
2021/01/06 04:13:50;;;;;;;61.28;18.83;;;14.60;50.60;;;;;;5070695;28;20155;-59
2021/01/06 04:16:16;;;;;;;66.05;17.42;;;14.50;50.80;;;;;;5089159;28;20112;-58
2021/01/06 04:18:44;;;;;;;59.45;16.60;;;14.40;51.20;;;;;;5088696;28;20147;-61
2021/01/06 04:21:11;;;;;;;58.72;16.38;;;14.40;51.50;;;;;;5088310;28;20422;-58
2021/01/06 04:23:38;;;;;;;51.08;15.00;;;14.40;51.50;;;;;;5089549;28;20064;-60
2021/01/06 04:26:04;;;;;;;;;;;14.40;51.50;;;;;;5090196;28;20076;-59
2021/01/06 04:28:35;;;;;;;53.88;14.85;;;14.20;51.30;;;;;;5071898;28;20002;-61
2021/01/06 04:31:22;;;;;;;43.88;14.82;;;14.20;51.50;;;;;;5089886;28;20076;-58
2021/01/06 04:33:55;;;;;;;60.60;16.77;;;14.20;51.60;;;;;;5087199;28;20557;-57
2021/01/06 04:36:29;;;;;;;50.25;16.58;;;14.10;51.80;;;;;;5084887;28;20100;-59
2021/01/06 04:38:58;;;;;;;44.17;15.75;;;14.00;51.80;;;;;;5087240;28;20167;-59
2021/01/06 04:41:34;;;;;;;46.90;17.00;;;14.00;51.80;;;;;;5088717;28;20199;-58
2021/01/06 04:44:46;;;;;;;53.92;17.33;;;14.00;52.30;;;;;;5088796;28;20072;-60
2021/01/06 04:48:07;;;;;;;63.17;19.70;;;14.00;52.40;;;;;;5090303;28;20069;-58
2021/01/06 04:50:54;;;;;;;66.78;18.90;;;14.00;52.40;;;;;;5027636;28;20591;-56
2021/01/06 04:53:42;;;;;;;53.63;16.23;;;13.90;52.50;;;;;;5090923;28;20069;-59
2021/01/06 04:56:21;;;;;;;54.38;15.80;;;13.90;52.70;;;;;;5090104;28;20142;-55
2021/01/06 04:58:58;;;;;;;57.55;16.05;;;13.90;52.60;;;;;;5087379;28;20444;-60
2021/01/06 05:01:40;;;;;;;54.63;15.27;;;13.90;53.00;;;;;;5091190;28;20076;-60
2021/01/06 05:04:15;;;;;;;45.42;14.68;;;13.80;52.60;;;;;;5088211;28;20435;-57
2021/01/06 05:07:03;;;;;;;52.25;14.65;;;13.80;53.20;;;;;;5088459;28;21126;-60
2021/01/06 05:09:42;;;;;;;58.10;16.10;;;13.80;53.20;;;;;;5087817;28;20546;-59
2021/01/06 05:12:18;;;;;;;43.85;15.27;;;13.70;53.10;;;;;;5070797;28;20117;-57
2021/01/06 05:15:04;;;;;;;59.03;16.58;;;13.70;53.10;;;;;;5088037;28;20087;-59
2021/01/06 05:17:31;;;;;;;47.40;15.55;;;13.60;53.50;;;;;;5089369;28;20462;-58
2021/01/06 05:19:57;;;;;;;;;;;13.50;53.80;;;;;;5091270;28;20419;-58
2021/01/06 05:22:24;;;;;;;64.07;19.90;;;13.50;53.90;;;;;;5087913;28;19963;-59
2021/01/06 05:24:51;;;;;;;62.65;22.90;;;13.40;53.90;;;;;;5088466;28;20547;-57
2021/01/06 05:27:18;;;;;;;75.13;23.08;;;13.40;54.10;;;;;;5072243;28;20427;-60
2021/01/06 05:29:49;;;;;;;76.47;23.20;;;13.40;54.10;;;;;;5089975;28;20104;-60
2021/01/06 05:32:38;;;;;;;71.63;21.23;;;13.40;54.10;;;;;;5088811;28;20427;-60
2021/01/06 05:35:08;;;;;;;79.00;21.88;;;13.30;53.90;;;;;;5106674;28;20179;-57
2021/01/06 05:37:35;;;;;;;66.80;21.00;;;13.30;53.80;;;;;;5104546;28;20159;-58
2021/01/06 05:40:08;;;;;;;75.15;22.52;;;13.30;53.40;;;;;;5107027;28;20198;-60
2021/01/06 05:42:48;;;;;;;86.10;24.58;;;13.30;53.40;;;;;;5107162;28;20122;-60
2021/01/06 05:45:17;;;;;;;79.32;24.80;;;13.30;53.70;;;;;;5105064;28;21355;-58
2021/01/06 05:47:50;;;;;;;94.20;28.08;;;13.30;54.30;;;;;;5092240;28;20075;-58
2021/01/06 05:50:38;;;;;;;91.70;26.90;;;13.30;53.80;;;;;;5105050;28;20560;-59
2021/01/06 05:53:14;;;;;;;80.07;26.33;;;13.30;54.10;;;;;;5104022;28;20086;-58
2021/01/06 05:55:45;;;;;;;77.65;25.83;;;13.30;53.80;;;;;;5103274;28;20136;-60
2021/01/06 05:58:32;;;;;;;99.20;26.88;;;13.20;53.80;;;;;;5101585;28;20531;-60
2021/01/06 06:01:31;;;;;;;93.25;27.90;;;13.20;53.80;;;;;;5106408;28;20117;-56
2021/01/06 06:04:20;;;;;;;96.30;28.92;;;13.20;53.90;;;;;;5107185;28;20113;-57
2021/01/06 06:07:05;;;;;;;81.30;26.13;;;13.10;53.90;;;;;;5085349;28;20108;-55
2021/01/06 06:10:20;;;;;;;96.45;28.13;;;13.10;54.20;;;;;;5107009;28;20101;-60
2021/01/06 06:13:06;;;;;;;93.88;26.95;;;13.10;54.50;;;;;;5089975;28;20080;-56
2021/01/06 06:15:42;;;;;;;89.00;27.73;;;13.00;54.40;;;;;;5107592;28;20104;-58
2021/01/06 06:18:18;;;;;;;85.03;26.40;;;13.00;54.30;;;;;;5108357;28;20072;-57
2021/01/06 06:21:06;;;;;;;98.78;26.52;;;12.90;54.00;;;;;;5104471;28;20072;-57
2021/01/06 06:23:32;;;;;;;87.13;27.15;;;12.80;54.10;;;;;;5081417;28;20079;-57
2021/01/06 06:26:05;;;;;;;101.57;29.80;;;12.80;54.10;;;;;;5100069;28;20107;-58
2021/01/06 06:28:55;;;;;;;90.07;28.60;;;12.80;54.00;;;;;;5100409;28;20543;-59
2021/01/06 06:31:28;;;;;;;109.53;32.33;;;12.80;54.50;;;;;;5100949;28;20080;-59
2021/01/06 06:34:03;;;;;;;89.53;30.88;;;12.70;54.50;;;;;;5107471;28;20108;-54
2021/01/06 06:36:34;;;;;;;95.88;31.50;;;12.70;54.80;;;;;;5107144;28;20451;-58
2021/01/06 06:39:15;;;;;;;105.50;32.28;;;12.70;54.70;;;;;;5076163;28;20073;-60
2021/01/06 06:41:44;;;;;;;111.25;31.70;;;12.60;54.70;;;;;;5107629;28;20060;-56
2021/01/06 06:44:10;;;;;;;110.28;31.48;;;12.60;54.90;;;;;;5108726;28;20179;-59
2021/01/06 06:47:21;;;;;;;98.70;31.42;;;12.60;54.60;;;;;;5110592;28;20068;-60
2021/01/06 06:50:24;;;;;;;116.22;34.13;;;12.60;54.30;;;;;;5108024;28;20084;-57
2021/01/06 06:53:13;;;;;;;123.15;34.85;;;12.50;54.90;;;;;;5050222;28;20163;-56
2021/01/06 06:55:39;;;;;;;122.43;33.95;;;12.50;54.60;;;;;;5105585;28;20451;-58
2021/01/06 06:58:27;;;;;;;;;;;12.50;54.70;;;;;;5110415;28;20165;-58
2021/01/06 07:00:53;;;;;;;122.05;36.22;;;12.40;54.70;;;;;;5105682;28;20045;-58
2021/01/06 07:03:29;;;;;;;118.72;35.35;;;12.40;54.90;;;;;;5103985;28;20428;-59
2021/01/06 07:06:00;;;;;;;101.85;34.80;;;12.40;54.90;;;;;;5103744;28;20068;-59
2021/01/06 07:08:32;;;;;;;108.85;34.03;;;12.30;55.10;;;;;;5110037;28;20095;-60
2021/01/06 07:11:21;;;;;;;119.80;34.85;;;12.30;54.70;;;;;;5105380;28;20068;-59
2021/01/06 07:14:01;;;;;;;120.57;35.63;;;12.30;54.60;;;;;;5102080;28;20125;-55
2021/01/06 07:17:00;;;;;;;130.98;34.20;;;12.20;54.60;;;;;;5106095;28;20107;-59
2021/01/06 07:19:37;;;;;;;117.32;31.92;;;12.20;54.60;;;;;;5099164;28;20206;-59
2021/01/06 07:22:20;;;;;;;103.70;30.73;;;12.30;54.40;;;;;;5108251;28;20084;-60
2021/01/06 07:25:03;;;;;;;96.93;28.27;;;12.20;53.60;;;;;;5107869;28;20447;-56
2021/01/06 07:27:34;;;;;;;90.60;24.48;;;12.20;53.10;;;;;;5106467;28;20071;-57
2021/01/06 07:30:01;;;;;;;89.03;22.67;;;12.30;52.20;;;;;;5099917;28;20084;-59
2021/01/06 07:32:40;;;;;;;67.75;20.88;;;12.30;52.10;;;;;;5107029;28;21131;-56
2021/01/06 07:35:23;;;;;;;66.35;19.50;;;12.40;51.70;;;;;;5103466;28;20095;-54
2021/01/06 07:38:16;;;;;;;70.05;17.23;;;12.40;51.10;;;;;;5097539;28;20122;-59
2021/01/06 07:40:46;;;;;;;54.25;16.50;;;12.30;50.80;;;;;;5097304;28;20085;-56
2021/01/06 07:43:25;;;;;;;50.58;15.02;;;12.20;50.70;;;;;;5099361;28;20073;-55
2021/01/06 07:46:00;;;;;;;49.30;14.43;;;12.20;50.00;;;;;;5103778;28;20092;-59
2021/01/06 07:49:11;;;;;;;34.65;11.60;;;12.20;49.70;;;;;;5102250;28;20082;-57
2021/01/06 07:51:52;;;;;;;34.42;10.98;;;12.20;49.40;;;;;;5049495;28;20421;-56
2021/01/06 07:54:47;;;;;;;32.30;10.40;;;12.10;49.10;;;;;;5108518;28;20433;-56
2021/01/06 07:57:33;;;;;;;39.55;10.70;;;12.10;49.00;;;;;;5107483;28;20432;-59
2021/01/06 08:00:06;;;;;;;28.98;9.10;;;12.20;49.20;;;;;;5106230;28;20197;-58
2021/01/06 08:02:57;;;;;;;30.60;8.95;;;12.20;48.60;;;;;;5108683;28;20060;-56
2021/01/06 08:05:32;;;;;;;24.15;8.40;;;12.20;48.50;;;;;;5107279;28;20587;-58
2021/01/06 08:08:09;;;;;;;20.67;7.13;;;12.10;48.90;;;;;;5102715;28;20485;-56
2021/01/06 08:10:41;;;;;;;30.70;7.30;;;12.10;48.30;;;;;;5085465;28;20077;-59
2021/01/06 08:13:20;;;;;;;28.15;7.45;;;12.10;48.40;;;;;;5104555;28;21432;-59
2021/01/06 08:16:00;;;;;;;24.38;7.43;;;12.00;49.00;;;;;;5107355;28;20096;-60
2021/01/06 08:18:43;;;;;;;16.98;6.75;;;12.00;49.50;;;;;;5110019;28;20516;-58
2021/01/06 08:21:28;;;;;;;25.08;7.47;;;12.00;49.00;;;;;;5107925;28;20095;-59
2021/01/06 08:24:21;;;;;;;25.00;7.75;;;11.90;49.70;;;;;;5108317;28;20073;-57
2021/01/06 08:26:49;;;;;;;25.38;7.35;;;11.90;49.60;;;;;;5105214;28;20069;-59
2021/01/06 08:29:30;;;;;;;25.13;7.45;;;11.90;49.80;;;;;;5100437;28;20101;-57
2021/01/06 08:32:13;;;;;;;25.13;8.50;;;11.80;50.20;;;;;;5105334;28;21588;-58
2021/01/06 08:34:52;;;;;;;19.90;6.60;;;11.70;49.90;;;;;;5070369;28;20158;-59
2021/01/06 08:37:25;;;;;;;19.05;7.90;;;11.70;50.20;;;;;;5088725;28;20079;-57
2021/01/06 08:39:57;;;;;;;28.17;7.88;;;11.70;50.40;;;;;;5087018;28;20160;-56
2021/01/06 08:42:45;;;;;;;33.72;8.65;;;11.70;50.30;;;;;;5084951;28;21013;-58
2021/01/06 08:45:29;;;;;;;36.53;10.68;;;11.70;50.20;;;;;;5083476;28;20187;-55
2021/01/06 08:47:55;;;;;;;37.75;8.57;;;11.60;50.70;;;;;;5085028;28;20069;-57
2021/01/06 08:50:29;;;;;;;;;;;11.60;51.00;;;;;;5089137;28;20099;-58
2021/01/06 08:52:59;;;;;;;26.95;9.10;;;11.60;51.10;;;;;;5078772;28;20000;-57
2021/01/06 08:55:37;;;;;;;35.70;9.93;;;11.50;50.80;;;;;;5077886;28;20103;-59
2021/01/06 08:58:07;;;;;;;36.33;10.00;;;11.50;51.40;;;;;;5087010;28;20210;-59
2021/01/06 09:01:00;;;;;;;32.78;8.70;;;11.50;51.50;;;;;;5075720;28;20069;-57
2021/01/06 09:03:55;;;;;;;28.40;8.45;;;11.60;51.20;;;;;;5082285;28;20103;-56
2021/01/06 09:06:22;;;;;;;24.88;6.78;;;11.60;50.90;;;;;;5078147;28;20100;-57
2021/01/06 09:08:54;;;;;;;11.65;3.95;;;11.60;49.50;;;;;;5081669;28;21480;-58
2021/01/06 09:11:27;;;;;;;8.32;3.35;;;11.70;46.20;;;;;;5079966;28;20064;-58
2021/01/06 09:13:57;;;;;;;10.93;3.22;;;11.90;44.60;;;;;;5087007;28;20103;-54
2021/01/06 09:16:40;;;;;;;7.18;2.80;;;12.10;43.50;;;;;;5080192;28;20127;-57
2021/01/06 09:19:28;;;;;;;8.43;2.70;;;12.10;43.20;;;;;;5086780;28;20120;-56
2021/01/06 09:21:56;;;;;;;12.68;2.85;;;12.30;42.70;;;;;;5071020;28;20081;-58
2021/01/06 09:24:32;;;;;;;12.85;2.63;;;12.30;42.50;;;;;;5088245;28;20109;-58
2021/01/06 09:27:26;;;;;;;6.35;2.38;;;12.30;42.30;;;;;;5067894;28;20083;-59
2021/01/06 09:29:54;;;;;;;11.90;2.60;;;12.40;42.30;;;;;;5086140;28;20152;-55
2021/01/06 09:32:30;;;;;;;8.88;2.60;;;12.40;43.20;;;;;;5086951;28;20077;-56
2021/01/06 09:35:06;;;;;;;9.18;3.30;;;12.40;43.50;;;;;;5095109;28;20606;-58
2021/01/06 09:37:36;;;;;;;9.85;2.88;;;12.40;43.30;;;;;;5091110;28;20072;-59
2021/01/06 09:40:16;;;;;;;6.68;2.63;;;12.30;43.00;;;;;;5090948;28;20076;-57
2021/01/06 09:42:44;;;;;;;9.55;2.67;;;12.30;43.50;;;;;;5092171;28;20421;-59
2021/01/06 09:45:23;;;;;;;9.48;2.80;;;12.30;43.70;;;;;;5090503;28;20083;-60
2021/01/06 09:47:55;;;;;;;9.27;2.38;;;12.20;43.70;;;;;;5090918;28;20077;-58
2021/01/06 09:50:30;;;;;;;6.35;2.90;;;12.10;44.30;;;;;;5091179;28;20151;-59
2021/01/06 09:53:01;;;;;;;7.18;2.55;;;12.10;44.20;;;;;;5091494;28;21457;-58
2021/01/06 09:55:29;;;;;;;9.93;3.00;;;11.90;44.50;;;;;;5087117;28;20145;-60
2021/01/06 09:58:35;;;;;;;9.55;3.00;;;11.90;45.00;;;;;;5083954;28;20072;-60
2021/01/06 10:01:26;;;;;;;11.88;2.80;;;11.90;45.10;;;;;;5085910;28;20077;-60
2021/01/06 10:03:55;;;;;;;7.53;2.60;;;11.90;45.60;;;;;;5090544;28;20097;-58
2021/01/06 10:07:01;;;;;;;8.02;2.50;;;11.90;46.10;;;;;;5081780;28;20065;-55
2021/01/06 10:09:36;;;;;;;14.43;2.95;;;11.90;46.60;;;;;;5080260;28;20069;-58
2021/01/06 10:12:21;;;;;;;12.18;2.63;;;11.70;46.10;;;;;;5089131;28;20083;-57
2021/01/06 10:14:55;;;;;;;9.88;2.80;;;11.60;46.00;;;;;;5088765;28;20142;-58
2021/01/06 10:17:35;;;;;;;14.02;3.22;;;11.60;45.80;;;;;;5081651;28;20081;-60
2021/01/06 10:20:05;;;;;;;9.95;3.05;;;11.60;46.20;;;;;;5083321;28;20933;-58
2021/01/06 10:23:00;;;;;;;9.93;2.78;;;11.50;46.20;;;;;;5090784;28;20072;-57
2021/01/06 10:25:36;;;;;;;7.85;2.42;;;11.40;46.40;;;;;;5082163;28;20080;-59
2021/01/06 10:28:30;;;;;;;5.37;2.43;;;11.50;46.90;;;;;;5085583;28;20174;-59
2021/01/06 10:31:06;;;;;;;14.48;2.92;;;11.40;47.20;;;;;;5081890;28;20370;-58
2021/01/06 10:33:34;;;;;;;8.35;2.95;;;11.40;47.40;;;;;;5094698;28;20107;-55
2021/01/06 10:36:29;;;;;;;10.20;2.78;;;11.40;47.50;;;;;;5106808;28;20171;-58
2021/01/06 10:38:57;;;;;;;7.68;2.30;;;11.40;47.50;;;;;;5074948;28;20081;-57
2021/01/06 10:41:34;;;;;;;9.32;2.70;;;11.40;47.90;;;;;;5087503;28;20092;-58
2021/01/06 10:44:00;;;;;;;;;;;11.20;48.00;;;;;;5105853;28;20118;-59
2021/01/06 10:46:47;;;;;;;15.65;2.75;;;11.20;48.20;;;;;;5107583;28;19960;-62
2021/01/06 10:49:19;;;;;;;8.07;2.80;;;11.20;48.60;;;;;;5101133;28;20935;-59
2021/01/06 10:52:00;;;;;;;5.45;2.58;;;11.20;48.80;;;;;;5106568;28;20072;-59
2021/01/06 10:54:46;;;;;;;5.93;2.38;;;11.20;48.90;;;;;;5108449;28;20079;-62
2021/01/06 10:57:15;;;;;;;7.30;2.65;;;11.20;48.90;;;;;;5079926;28;20079;-58
2021/01/06 11:00:21;;;;;;;9.18;2.50;;;11.20;49.10;;;;;;5082144;28;20068;-58
2021/01/06 11:03:13;;;;;;;7.70;2.63;;;11.10;48.60;;;;;;5106108;28;20120;-60
2021/01/06 11:05:43;;;;;;;12.55;3.30;;;11.00;49.00;;;;;;5106830;28;20427;-56
2021/01/06 11:08:47;;;;;;;6.32;2.30;;;11.00;49.40;;;;;;5107061;28;20146;-60
2021/01/06 11:11:43;;;;;;;10.57;3.00;;;11.00;50.00;;;;;;5109328;28;20075;-58
2021/01/06 11:14:44;;;;;;;8.85;3.00;;;11.00;50.10;;;;;;5089370;28;20428;-60
2021/01/06 11:17:19;;;;;;;5.47;2.70;;;10.90;50.00;;;;;;5110272;28;20541;-58
2021/01/06 11:19:57;;;;;;;9.98;3.08;;;10.90;50.10;;;;;;5093283;28;20137;-58
2021/01/06 11:22:33;;;;;;;9.85;2.67;;;10.90;50.10;;;;;;5112217;28;20118;-57
2021/01/06 11:25:05;;;;;;;5.88;2.67;;;10.80;49.80;;;;;;5109183;28;20086;-58
2021/01/06 11:27:46;;;;;;;7.63;2.90;;;10.80;50.10;;;;;;5092261;28;20486;-60
2021/01/06 11:30:29;;;;;;;5.78;2.80;;;10.70;50.50;;;;;;5107552;28;20069;-59
2021/01/06 11:33:14;;;;;;;6.50;3.00;;;10.80;50.60;;;;;;5100733;28;20188;-55
2021/01/06 11:36:02;;;;;;;10.57;2.72;;;10.70;50.60;;;;;;5082834;28;20465;-60
2021/01/06 11:38:37;;;;;;;13.80;3.00;;;10.70;50.90;;;;;;5084599;28;20065;-63
2021/01/06 11:41:07;;;;;;;7.20;3.13;;;10.70;51.10;;;;;;5083845;28;20078;-59
2021/01/06 11:43:48;;;;;;;9.10;3.03;;;10.60;52.00;;;;;;5084257;28;20115;-57
2021/01/06 11:46:27;;;;;;;7.70;2.45;;;10.60;52.10;;;;;;5085256;28;20119;-57
2021/01/06 11:49:12;;;;;;;8.77;2.80;;;10.50;51.90;;;;;;5086694;28;20069;-60
2021/01/06 11:52:22;;;;;;;5.22;2.30;;;10.40;52.30;;;;;;5087752;28;20146;-55
2021/01/06 11:54:53;;;;;;;7.75;2.13;;;10.40;52.50;;;;;;5084563;28;20136;-56
2021/01/06 11:57:31;;;;;;;10.52;2.47;;;10.30;52.40;;;;;;5088557;28;20092;-57
2021/01/06 12:00:32;;;;;;;9.85;2.38;;;10.30;52.60;;;;;;5086478;28;20414;-58
2021/01/06 12:03:07;;;;;;;4.93;2.70;;;10.30;52.10;;;;;;5082864;28;20077;-58
2021/01/06 12:05:55;;;;;;;4.20;2.35;;;10.30;52.30;;;;;;5085871;28;20067;-56
2021/01/06 12:08:43;;;;;;;10.23;2.70;;;10.20;52.60;;;;;;5085159;28;20096;-58
2021/01/06 12:11:29;;;;;;;7.65;2.63;;;10.20;53.30;;;;;;5083014;28;20117;-54
2021/01/06 12:14:22;;;;;;;5.90;2.55;;;10.10;53.30;;;;;;5083938;28;20102;-58
2021/01/06 12:16:58;;;;;;;8.55;3.20;;;10.00;53.00;;;;;;5070037;28;20096;-57
2021/01/06 12:19:49;;;;;;;10.27;3.50;;;10.00;53.30;;;;;;5086087;28;20065;-59
2021/01/06 12:22:18;;;;;;;17.50;4.10;;;10.00;53.70;;;;;;5064083;28;20077;-57
2021/01/06 12:24:54;;;;;;;12.65;3.67;;;9.90;54.20;;;;;;5084601;28;20621;-59
2021/01/06 12:27:24;;;;;;;15.27;3.35;;;9.80;54.00;;;;;;5083333;28;20098;-55
2021/01/06 12:29:54;;;;;;;8.68;3.70;;;9.90;53.80;;;;;;5082731;28;20155;-57
2021/01/06 12:32:40;;;;;;;13.20;4.18;;;9.90;53.40;;;;;;5086683;28;20070;-57
2021/01/06 12:35:19;;;;;;;15.50;4.78;;;9.90;53.50;;;;;;5083218;28;20083;-58
2021/01/06 12:38:01;;;;;;;14.30;4.22;;;9.90;53.20;;;;;;5082717;28;20533;-54
2021/01/06 12:40:28;;;;;;;22.55;5.50;;;9.90;53.40;;;;;;5086451;28;20072;-58
2021/01/06 12:42:57;;;;;;;13.05;5.40;;;9.90;53.30;;;;;;5084748;28;20080;-56
2021/01/06 12:45:32;;;;;;;15.30;6.50;;;9.80;53.30;;;;;;5087610;28;20076;-58
2021/01/06 12:48:13;;;;;;;19.33;8.40;;;9.80;53.10;;;;;;5085110;28;20071;-58
2021/01/06 12:50:43;;;;;;;29.63;8.35;;;9.90;53.00;;;;;;5085059;28;20544;-55
2021/01/06 12:53:22;;;;;;;29.08;9.30;;;9.80;53.30;;;;;;5082786;28;20099;-57
2021/01/06 12:56:14;;;;;;;29.00;11.10;;;9.80;53.20;;;;;;5082831;28;20126;-56
2021/01/06 12:59:02;;;;;;;26.08;10.98;;;9.90;52.80;;;;;;5086822;28;20137;-58
2021/01/06 13:01:58;;;;;;;31.75;12.60;;;9.80;53.20;;;;;;5085231;28;20077;-58
2021/01/06 13:04:39;;;;;;;27.75;12.25;;;9.70;53.40;;;;;;5050393;28;20110;-59
2021/01/06 13:07:19;;;;;;;31.77;11.27;;;9.70;53.30;;;;;;5079988;28;20099;-57
2021/01/06 13:09:51;;;;;;;36.30;14.23;;;9.70;53.30;;;;;;5080559;28;20073;-59
2021/01/06 13:12:49;;;;;;;34.45;13.63;;;9.70;53.40;;;;;;5083294;28;20076;-59
2021/01/06 13:15:42;;;;;;;30.20;14.45;;;9.70;53.30;;;;;;5064349;28;20575;-58
2021/01/06 13:18:18;;;;;;;39.53;14.40;;;9.70;53.70;;;;;;5079608;28;20431;-55
2021/01/06 13:21:26;;;;;;;38.05;14.45;;;9.60;53.60;;;;;;5080624;28;20068;-59
2021/01/06 13:23:55;;;;;;;43.03;17.17;;;9.60;53.20;;;;;;5070272;28;20076;-54
2021/01/06 13:26:41;;;;;;;38.38;16.00;;;9.60;53.60;;;;;;5082798;28;20516;-57
2021/01/06 13:29:22;;;;;;;46.95;15.18;;;9.50;53.80;;;;;;5084817;28;20076;-54